createdAt,value
2018-03-25T00:02:14.969Z,67.00
2018-03-25T00:04:42.533Z,67.00
2018-03-25T00:07:10.949Z,67.00
2018-03-25T00:09:38.557Z,67.20
2018-03-25T00:12:06.185Z,67.20
2018-03-25T00:14:33.769Z,67.20
2018-03-25T00:17:01.312Z,67.20
2018-03-25T00:19:29.182Z,67.00
2018-03-25T00:21:56.772Z,67.20
2018-03-25T00:24:24.332Z,67.20
2018-03-25T00:26:51.888Z,67.20
2018-03-25T00:29:19.586Z,67.40
2018-03-25T00:31:47.488Z,67.40
2018-03-25T00:34:15.574Z,67.40
2018-03-25T00:36:43.100Z,67.40
2018-03-25T00:39:10.662Z,67.50
2018-03-25T00:41:38.251Z,67.60
2018-03-25T00:44:06.292Z,67.70
2018-03-25T00:46:33.857Z,67.70
2018-03-25T00:49:01.408Z,67.60
2018-03-25T00:51:28.969Z,67.70
2018-03-25T00:53:57.357Z,67.80
2018-03-25T00:56:24.870Z,67.70
2018-03-25T00:58:52.783Z,67.90
2018-03-25T01:01:20.309Z,67.90
2018-03-25T01:03:48.252Z,68.40
2018-03-25T01:06:15.734Z,68.30
2018-03-25T01:08:43.723Z,68.20
2018-03-25T01:11:11.673Z,68.00
2018-03-25T01:13:39.240Z,68.00
2018-03-25T01:16:11.238Z,68.20
2018-03-25T01:18:38.757Z,68.30
2018-03-25T01:21:06.257Z,68.20
2018-03-25T01:23:34.018Z,68.30
2018-03-25T01:26:01.933Z,68.50
2018-03-25T01:28:29.435Z,68.50
2018-03-25T01:30:57.352Z,68.80
2018-03-25T01:33:24.829Z,68.80
2018-03-25T01:35:52.359Z,68.80
2018-03-25T01:38:19.892Z,69.00
2018-03-25T01:40:47.401Z,69.30
2018-03-25T01:43:14.930Z,69.20
2018-03-25T01:45:42.826Z,69.50
2018-03-25T01:48:10.497Z,69.50
2018-03-25T01:50:38.023Z,69.60
2018-03-25T01:53:05.892Z,69.70
2018-03-25T01:55:33.810Z,69.90
2018-03-25T01:58:01.351Z,69.90
2018-03-25T02:00:29.241Z,69.60
2018-03-25T02:02:56.765Z,69.60
2018-03-25T02:05:24.652Z,69.70
2018-03-25T02:07:52.636Z,69.80
2018-03-25T02:10:20.168Z,69.70
2018-03-25T02:12:48.083Z,69.70
2018-03-25T02:15:15.628Z,69.70
2018-03-25T02:17:43.197Z,69.50
2018-03-25T02:20:10.722Z,69.50
2018-03-25T02:22:38.351Z,69.50
2018-03-25T02:25:05.884Z,69.70
2018-03-25T02:27:33.801Z,69.90
2018-03-25T02:30:01.368Z,69.90
2018-03-25T02:32:28.934Z,69.90
2018-03-25T02:34:56.545Z,69.70
2018-03-25T02:37:24.385Z,69.90
2018-03-25T02:39:51.895Z,69.90
2018-03-25T02:42:19.394Z,69.90
2018-03-25T02:44:46.887Z,70.00
2018-03-25T02:47:14.807Z,70.10
2018-03-25T02:49:42.347Z,70.10
2018-03-25T02:52:10.227Z,70.30
2018-03-25T02:54:37.737Z,70.30
2018-03-25T02:57:05.244Z,70.30
2018-03-25T02:59:33.070Z,70.40
2018-03-25T03:02:00.677Z,70.30
2018-03-25T03:04:28.634Z,70.30
2018-03-25T03:06:56.559Z,70.40
2018-03-25T03:09:24.055Z,70.40
2018-03-25T03:11:52.662Z,70.40
2018-03-25T03:14:20.690Z,70.40
2018-03-25T03:16:48.229Z,70.40
2018-03-25T03:19:15.846Z,70.40
2018-03-25T03:21:43.591Z,70.40
2018-03-25T03:24:11.087Z,70.40
2018-03-25T03:26:38.679Z,70.60
2018-03-25T03:29:06.175Z,70.60
2018-03-25T03:31:33.691Z,70.50
2018-03-25T03:34:01.594Z,70.50
2018-03-25T03:36:29.104Z,70.50
2018-03-25T03:38:57.224Z,70.60
2018-03-25T03:41:24.754Z,70.70
2018-03-25T03:43:52.732Z,70.60
2018-03-25T03:46:20.653Z,70.70
2018-03-25T03:48:48.982Z,70.70
2018-03-25T03:51:16.491Z,70.70
2018-03-25T03:53:43.993Z,70.70
2018-03-25T03:56:11.468Z,70.80
2018-03-25T03:58:39.345Z,70.80
2018-03-25T04:01:07.221Z,70.90
2018-03-25T04:03:35.141Z,71.00
2018-03-25T04:06:02.719Z,71.00
2018-03-25T04:08:30.260Z,71.10
2018-03-25T04:10:57.785Z,71.10
2018-03-25T04:13:25.679Z,71.30
2018-03-25T04:15:53.202Z,71.30
2018-03-25T04:18:21.134Z,71.20
2018-03-25T04:20:48.678Z,71.20
2018-03-25T04:23:16.181Z,71.10
2018-03-25T04:25:43.669Z,71.20
2018-03-25T04:28:11.603Z,71.10
2018-03-25T04:30:39.109Z,71.00
2018-03-25T04:33:07.032Z,71.30
2018-03-25T04:35:34.588Z,71.30
2018-03-25T04:38:02.092Z,71.40
2018-03-25T04:40:30.043Z,71.30
2018-03-25T04:42:57.681Z,71.30
2018-03-25T04:45:25.210Z,71.40
2018-03-25T04:47:53.171Z,71.40
2018-03-25T04:50:20.705Z,71.40
2018-03-25T04:52:48.607Z,71.30
2018-03-25T04:55:16.300Z,71.30
2018-03-25T04:57:43.804Z,71.30
2018-03-25T05:00:11.345Z,71.30
2018-03-25T05:02:38.934Z,71.20
2018-03-25T05:05:06.428Z,71.10
2018-03-25T05:07:33.937Z,71.20
2018-03-25T05:10:01.451Z,71.60
2018-03-25T05:12:28.943Z,71.70
2018-03-25T05:14:56.524Z,71.50
2018-03-25T05:17:24.152Z,71.40
2018-03-25T05:19:52.158Z,71.30
2018-03-25T05:22:19.633Z,71.30
2018-03-25T05:24:47.528Z,71.40
2018-03-25T05:27:15.167Z,71.40
2018-03-25T05:29:42.668Z,71.40
2018-03-25T05:32:10.227Z,71.50
2018-03-25T05:34:37.786Z,71.40
2018-03-25T05:37:05.312Z,71.40
2018-03-25T05:39:32.809Z,71.40
2018-03-25T05:42:00.313Z,71.40
2018-03-25T05:44:28.253Z,71.30
2018-03-25T05:46:55.885Z,71.30
2018-03-25T05:49:23.403Z,71.30
2018-03-25T05:51:51.483Z,71.40
2018-03-25T05:54:19.395Z,71.50
2018-03-25T05:56:46.952Z,71.50
2018-03-25T05:59:14.600Z,71.40
2018-03-25T06:01:42.195Z,71.50
2018-03-25T06:04:09.754Z,71.40
2018-03-25T06:06:37.579Z,71.50
2018-03-25T06:09:05.486Z,71.60
2018-03-25T06:11:33.020Z,71.60
2018-03-25T06:14:01.118Z,71.80
2018-03-25T06:16:28.710Z,71.80
2018-03-25T06:18:56.213Z,71.80
2018-03-25T06:21:24.243Z,72.00
2018-03-25T06:23:51.792Z,72.00
2018-03-25T06:26:19.312Z,72.10
2018-03-25T06:28:47.281Z,72.30
2018-03-25T06:31:14.996Z,72.30
2018-03-25T06:33:42.526Z,72.20
2018-03-25T06:36:10.081Z,72.10
2018-03-25T06:38:38.012Z,72.00
2018-03-25T06:41:05.543Z,72.00
2018-03-25T06:43:33.490Z,72.10
2018-03-25T06:46:01.438Z,72.20
2018-03-25T06:48:29.860Z,72.20
2018-03-25T06:50:57.834Z,72.20
2018-03-25T06:53:25.823Z,71.90
2018-03-25T06:55:53.348Z,71.90
2018-03-25T06:58:20.925Z,71.80
2018-03-25T07:00:48.504Z,71.70
2018-03-25T07:03:16.427Z,71.40
2018-03-25T07:05:44.019Z,71.40
2018-03-25T07:08:11.937Z,71.20
2018-03-25T07:10:39.446Z,71.20
2018-03-25T07:13:06.942Z,71.10
2018-03-25T07:15:34.496Z,71.10
2018-03-25T07:18:02.443Z,70.80
2018-03-25T07:20:29.942Z,70.80
2018-03-25T07:22:57.853Z,70.70
2018-03-25T07:25:25.373Z,70.70
2018-03-25T07:27:53.421Z,70.60
2018-03-25T07:30:21.064Z,70.70
2018-03-25T07:32:48.559Z,70.30
2018-03-25T07:35:16.512Z,69.90
2018-03-25T07:37:44.036Z,69.90
2018-03-25T07:40:11.518Z,69.90
2018-03-25T07:42:40.003Z,69.30
2018-03-25T07:45:07.564Z,68.60
2018-03-25T07:47:35.064Z,68.10
2018-03-25T07:50:02.765Z,68.00
2018-03-25T07:52:30.318Z,68.20
2018-03-25T07:54:58.314Z,67.20
2018-03-25T07:57:26.788Z,67.20
2018-03-25T07:59:54.309Z,66.80
2018-03-25T08:02:21.914Z,66.30
2018-03-25T08:04:49.519Z,66.00
2018-03-25T08:07:17.092Z,65.00
2018-03-25T08:09:44.626Z,64.50
2018-03-25T08:12:12.126Z,64.60
2018-03-25T08:14:39.690Z,64.40
2018-03-25T08:17:07.290Z,64.30
2018-03-25T08:19:35.259Z,63.60
2018-03-25T08:22:03.327Z,63.60
2018-03-25T08:24:31.327Z,63.30
2018-03-25T08:26:58.847Z,63.10
2018-03-25T08:29:26.421Z,63.00
2018-03-25T08:31:54.870Z,62.40
2018-03-25T08:34:22.419Z,61.70
2018-03-25T08:36:49.967Z,61.40
2018-03-25T08:39:17.538Z,61.10
2018-03-25T08:41:45.040Z,61.00
2018-03-25T08:44:12.587Z,60.50
2018-03-25T08:46:40.138Z,61.40
2018-03-25T08:49:07.657Z,61.10
2018-03-25T08:51:35.640Z,60.60
2018-03-25T08:54:03.532Z,59.70
2018-03-25T08:56:31.057Z,59.70
2018-03-25T08:58:58.568Z,59.90
2018-03-25T09:01:26.062Z,59.40
2018-03-25T09:03:53.561Z,58.30
2018-03-25T09:06:21.554Z,57.90
2018-03-25T09:08:49.218Z,57.90
2018-03-25T09:11:16.755Z,57.60
2018-03-25T09:13:44.729Z,57.00
2018-03-25T09:16:12.295Z,57.00
2018-03-25T09:18:40.282Z,55.80
2018-03-25T09:21:08.177Z,54.30
2018-03-25T09:23:35.750Z,54.30
2018-03-25T09:26:03.257Z,53.70
2018-03-25T09:28:30.799Z,53.10
2018-03-25T09:30:59.299Z,52.70
2018-03-25T09:33:26.876Z,51.80
2018-03-25T09:35:54.471Z,50.70
2018-03-25T09:38:23.537Z,50.30
2018-03-25T09:40:51.063Z,50.00
2018-03-25T09:43:23.309Z,49.60
2018-03-25T09:45:50.884Z,49.40
2018-03-25T09:48:18.761Z,48.20
2018-03-25T09:50:46.310Z,48.20
2018-03-25T09:53:13.810Z,47.60
2018-03-25T09:55:41.310Z,47.20
2018-03-25T09:58:09.221Z,45.90
2018-03-25T10:00:36.770Z,45.90
2018-03-25T10:03:24.164Z,45.50
2018-03-25T10:05:52.274Z,44.20
2018-03-25T10:08:19.803Z,44.20
2018-03-25T10:10:47.392Z,44.00
2018-03-25T10:13:14.894Z,44.00
2018-03-25T10:15:42.482Z,44.10
2018-03-25T10:18:10.239Z,43.50
2018-03-25T10:20:37.928Z,43.10
2018-03-25T10:23:06.671Z,42.10
2018-03-25T10:25:36.123Z,42.10
2018-03-25T10:28:04.880Z,41.90
2018-03-25T10:30:34.967Z,41.90
2018-03-25T10:33:02.550Z,41.30
2018-03-25T10:35:30.992Z,40.20
2018-03-25T10:37:59.635Z,39.90
2018-03-25T10:40:27.280Z,39.90
2018-03-25T10:42:54.780Z,39.50
2018-03-25T10:45:22.339Z,38.80
2018-03-25T10:47:49.866Z,38.60
2018-03-25T10:50:17.440Z,38.50
2018-03-25T10:52:44.989Z,37.80
2018-03-25T10:55:12.569Z,38.00
2018-03-25T10:57:40.193Z,37.90
2018-03-25T11:00:08.185Z,38.40
2018-03-25T11:02:35.776Z,38.40
2018-03-25T11:05:03.304Z,37.70
2018-03-25T11:07:30.997Z,38.00
2018-03-25T11:09:58.636Z,38.60
2018-03-25T11:12:27.127Z,37.90
2018-03-25T11:14:54.742Z,37.90
2018-03-25T11:17:22.313Z,37.60
2018-03-25T11:19:49.827Z,37.60
2018-03-25T11:22:17.390Z,37.80
2018-03-25T11:24:46.093Z,38.00
2018-03-25T11:27:13.634Z,38.30
2018-03-25T11:29:41.585Z,38.90
2018-03-25T11:32:09.443Z,38.90
2018-03-25T11:34:37.792Z,40.20
2018-03-25T11:37:05.290Z,40.10
2018-03-25T11:39:32.860Z,40.00
2018-03-25T11:42:00.395Z,39.50
2018-03-25T11:44:29.594Z,39.10
2018-03-25T11:46:57.200Z,38.70
2018-03-25T11:49:24.739Z,38.90
2018-03-25T11:51:52.300Z,38.30
2018-03-25T11:54:19.802Z,38.40
2018-03-25T11:56:47.740Z,37.40
2018-03-25T11:59:15.283Z,37.40
2018-03-25T12:01:42.843Z,37.70
2018-03-25T12:04:10.479Z,37.80
2018-03-25T12:06:38.036Z,38.00
2018-03-25T12:09:05.941Z,38.80
2018-03-25T12:11:33.453Z,38.80
2018-03-25T12:14:01.387Z,39.10
2018-03-25T12:16:28.929Z,39.10
2018-03-25T12:18:56.462Z,39.10
2018-03-25T12:21:24.801Z,39.30
2018-03-25T12:23:52.467Z,39.30
2018-03-25T12:26:20.042Z,39.80
2018-03-25T12:28:47.565Z,39.40
2018-03-25T12:31:15.103Z,39.30
2018-03-25T12:33:43.044Z,39.40
2018-03-25T12:36:10.564Z,39.40
2018-03-25T12:38:38.112Z,39.20
2018-03-25T12:41:06.112Z,37.80
2018-03-25T12:43:33.662Z,37.80
2018-03-25T12:46:01.773Z,37.90
2018-03-25T12:48:29.413Z,37.40
2018-03-25T12:50:57.632Z,37.30
2018-03-25T12:53:25.168Z,37.60
2018-03-25T12:55:52.741Z,37.80
2018-03-25T12:58:20.338Z,38.20
2018-03-25T13:00:48.157Z,38.10
2018-03-25T13:03:16.542Z,38.00
2018-03-25T13:05:44.112Z,38.10
2018-03-25T13:08:11.657Z,37.70
2018-03-25T13:10:39.247Z,37.70
2018-03-25T13:13:06.816Z,37.80
2018-03-25T13:15:34.341Z,37.10
2018-03-25T13:18:02.400Z,37.00
2018-03-25T13:20:29.969Z,36.90
2018-03-25T13:22:57.704Z,36.70
2018-03-25T13:25:25.220Z,37.10
2018-03-25T13:27:52.796Z,36.70
2018-03-25T13:30:21.215Z,37.90
2018-03-25T13:32:48.809Z,38.10
2018-03-25T13:35:16.368Z,37.70
2018-03-25T13:37:44.611Z,38.20
2018-03-25T13:40:12.426Z,37.30
2018-03-25T13:42:40.408Z,37.40
2018-03-25T13:45:08.322Z,36.60
2018-03-25T13:47:35.936Z,36.60
2018-03-25T13:50:03.508Z,36.60
2018-03-25T13:52:31.149Z,36.80
2018-03-25T13:54:58.667Z,37.70
2018-03-25T13:57:26.325Z,36.20
2018-03-25T13:59:53.811Z,36.20
2018-03-25T14:02:21.327Z,36.10
2018-03-25T14:04:49.314Z,36.20
2018-03-25T14:07:17.291Z,37.10
2018-03-25T14:09:44.826Z,37.10
2018-03-25T14:12:12.343Z,36.60
2018-03-25T14:14:39.913Z,36.00
2018-03-25T14:17:07.487Z,36.00
2018-03-25T14:19:34.999Z,36.10
2018-03-25T14:22:03.051Z,35.50
2018-03-25T14:24:30.562Z,35.50
2018-03-25T14:26:58.330Z,35.30
2018-03-25T14:29:25.861Z,35.30
2018-03-25T14:31:54.064Z,35.70
2018-03-25T14:34:21.638Z,35.70
2018-03-25T14:36:49.248Z,36.00
2018-03-25T14:39:17.289Z,37.20
2018-03-25T14:41:45.189Z,36.40
2018-03-25T14:44:12.755Z,35.80
2018-03-25T14:46:40.487Z,35.90
2018-03-25T14:49:08.417Z,34.70
2018-03-25T14:51:36.115Z,34.70
2018-03-25T14:54:09.326Z,34.60
2018-03-25T14:56:36.909Z,34.50
2018-03-25T14:59:05.170Z,34.90
2018-03-25T15:01:32.908Z,34.70
2018-03-25T15:04:00.938Z,35.80
2018-03-25T15:06:28.522Z,35.80
2018-03-25T15:08:56.096Z,35.50
2018-03-25T15:11:23.644Z,34.70
2018-03-25T15:13:51.282Z,34.90
2018-03-25T15:16:19.399Z,34.60
2018-03-25T15:18:47.095Z,35.00
2018-03-25T15:21:15.045Z,34.70
2018-03-25T15:23:42.641Z,34.40
2018-03-25T15:26:11.844Z,35.00
2018-03-25T15:28:39.439Z,36.00
2018-03-25T15:31:07.000Z,36.10
2018-03-25T15:33:34.541Z,35.90
2018-03-25T15:36:02.042Z,35.90
2018-03-25T15:38:29.548Z,36.40
2018-03-25T15:40:57.477Z,36.90
2018-03-25T15:43:24.982Z,36.90
2018-03-25T15:45:52.487Z,37.20
2018-03-25T15:48:21.940Z,38.60
2018-03-25T15:50:49.843Z,38.40
2018-03-25T15:53:17.369Z,38.40
2018-03-25T15:55:44.884Z,39.50
2018-03-25T15:58:12.438Z,39.50
2018-03-25T16:00:40.094Z,39.00
2018-03-25T16:03:07.631Z,39.50
2018-03-25T16:05:35.581Z,40.10
2018-03-25T16:08:03.380Z,40.10
2018-03-25T16:10:31.315Z,42.20
2018-03-25T16:12:58.866Z,42.20
2018-03-25T16:15:26.552Z,41.40
2018-03-25T16:17:54.074Z,42.40
2018-03-25T16:20:21.583Z,41.20
2018-03-25T16:22:49.125Z,40.90
2018-03-25T16:25:16.609Z,40.80
2018-03-25T16:27:44.237Z,41.20
2018-03-25T16:30:13.918Z,41.30
2018-03-25T16:32:43.036Z,41.20
2018-03-25T16:35:10.741Z,41.40
2018-03-25T16:37:38.291Z,42.10
2018-03-25T16:40:05.806Z,42.70
2018-03-25T16:42:33.774Z,43.10
2018-03-25T16:45:01.354Z,43.10
2018-03-25T16:47:29.261Z,44.40
2018-03-25T16:49:56.810Z,44.30
2018-03-25T16:52:24.340Z,42.70
2018-03-25T16:54:52.271Z,42.90
2018-03-25T16:57:19.880Z,42.90
2018-03-25T16:59:47.813Z,44.20
2018-03-25T17:02:16.935Z,44.20
2018-03-25T17:04:44.952Z,44.10
2018-03-25T17:07:12.881Z,43.70
2018-03-25T17:09:40.479Z,43.70
2018-03-25T17:12:08.071Z,43.90
2018-03-25T17:14:35.609Z,44.10
2018-03-25T17:17:04.358Z,44.60
2018-03-25T17:19:31.973Z,44.50
2018-03-25T17:21:59.820Z,44.70
2018-03-25T17:24:27.465Z,45.30
2018-03-25T17:26:55.108Z,45.60
2018-03-25T17:29:22.665Z,45.80
2018-03-25T17:31:50.213Z,46.30
2018-03-25T17:34:17.827Z,46.90
2018-03-25T17:36:45.461Z,46.80
2018-03-25T17:39:13.004Z,46.60
2018-03-25T17:41:40.657Z,46.90
2018-03-25T17:44:08.699Z,47.20
2018-03-25T17:46:36.225Z,47.20
2018-03-25T17:49:03.769Z,47.60
2018-03-25T17:51:31.276Z,47.60
2018-03-25T17:53:58.892Z,47.80
2018-03-25T17:56:26.556Z,48.00
2018-03-25T17:58:54.926Z,49.10
2018-03-25T18:01:22.448Z,49.10
2018-03-25T18:03:50.012Z,48.80
2018-03-25T18:06:17.584Z,49.60
2018-03-25T18:08:45.201Z,49.50
2018-03-25T18:11:13.146Z,50.00
2018-03-25T18:13:40.976Z,50.00
2018-03-25T18:16:08.632Z,50.70
2018-03-25T18:18:36.211Z,51.00
2018-03-25T18:21:04.240Z,51.20
2018-03-25T18:23:32.494Z,51.30
2018-03-25T18:26:00.183Z,51.20
2018-03-25T18:28:27.757Z,51.30
2018-03-25T18:30:57.663Z,52.30
2018-03-25T18:33:25.289Z,52.30
2018-03-25T18:35:53.733Z,52.40
2018-03-25T18:38:21.609Z,52.60
2018-03-25T18:40:50.384Z,52.70
2018-03-25T18:43:18.385Z,53.20
2018-03-25T18:45:46.029Z,53.20
2018-03-25T18:48:14.683Z,53.20
2018-03-25T18:50:42.251Z,53.20
2018-03-25T18:53:10.770Z,53.50
2018-03-25T18:55:38.728Z,53.60
2018-03-25T18:58:06.753Z,53.70
2018-03-25T19:00:34.416Z,53.70
2018-03-25T19:03:01.985Z,53.70
2018-03-25T19:05:29.793Z,54.10
2018-03-25T19:07:57.855Z,54.10
2018-03-25T19:10:25.582Z,54.10
2018-03-25T19:12:53.244Z,54.10
2018-03-25T19:15:20.814Z,54.70
2018-03-25T19:17:48.499Z,54.50
2018-03-25T19:20:16.089Z,54.70
2018-03-25T19:22:43.808Z,55.00
2018-03-25T19:25:11.409Z,55.50
2018-03-25T19:27:39.104Z,55.80
2018-03-25T19:30:06.803Z,56.30
2018-03-25T19:32:34.483Z,56.40
2018-03-25T19:35:02.266Z,56.60
2018-03-25T19:37:31.011Z,56.90
2018-03-25T19:39:58.906Z,57.20
2018-03-25T19:42:31.495Z,57.00
2018-03-25T19:45:00.777Z,57.60
2018-03-25T19:47:28.487Z,57.50
2018-03-25T19:49:56.117Z,57.70
2018-03-25T19:52:25.383Z,57.60
2018-03-25T19:54:53.101Z,57.60
2018-03-25T19:57:20.761Z,57.90
2018-03-25T19:59:48.978Z,57.90
2018-03-25T20:02:18.008Z,57.90
2018-03-25T20:04:46.703Z,58.40
2018-03-25T20:07:15.570Z,58.40
2018-03-25T20:09:44.903Z,58.40
2018-03-25T20:12:13.722Z,58.70
2018-03-25T20:14:42.241Z,58.80
2018-03-25T20:17:10.958Z,58.70
2018-03-25T20:19:38.978Z,58.90
2018-03-25T20:22:06.606Z,58.90
2018-03-25T20:24:35.076Z,58.90
2018-03-25T20:27:05.035Z,58.80
2018-03-25T20:29:32.611Z,58.80
2018-03-25T20:32:00.993Z,58.90
2018-03-25T20:34:28.881Z,59.10
2018-03-25T20:36:56.612Z,58.90
2018-03-25T20:39:24.190Z,59.00
2018-03-25T20:41:51.869Z,58.70
2018-03-25T20:44:19.437Z,58.90
2018-03-25T20:46:47.091Z,59.10
2018-03-25T20:49:15.298Z,59.40
2018-03-25T20:51:42.955Z,59.40
2018-03-25T20:54:12.084Z,59.20
2018-03-25T20:56:40.972Z,59.50
2018-03-25T20:59:08.771Z,59.50
2018-03-25T21:01:36.990Z,59.40
2018-03-25T21:04:04.812Z,59.40
2018-03-25T21:06:32.899Z,59.40
2018-03-25T21:09:00.890Z,59.70
2018-03-25T21:11:28.605Z,59.60
2018-03-25T21:13:56.350Z,59.80
2018-03-25T21:16:24.004Z,59.90
2018-03-25T21:18:51.861Z,59.90
2018-03-25T21:21:19.557Z,60.30
2018-03-25T21:23:48.335Z,60.40
2018-03-25T21:26:15.988Z,60.70
2018-03-25T21:28:43.520Z,60.90
2018-03-25T21:31:11.014Z,60.90
2018-03-25T21:33:38.553Z,60.80
2018-03-25T21:36:06.533Z,60.90
2018-03-25T21:38:34.438Z,61.10
2018-03-25T21:41:01.959Z,61.10
2018-03-25T21:43:29.890Z,61.20
2018-03-25T21:45:57.414Z,61.20
2018-03-25T21:48:24.946Z,61.50
2018-03-25T21:50:52.463Z,61.30
2018-03-25T21:53:19.952Z,61.30
2018-03-25T21:55:47.431Z,61.50
2018-03-25T21:58:15.360Z,61.50
2018-03-25T22:00:42.851Z,61.50
2018-03-25T22:03:10.427Z,61.70
2018-03-25T22:05:37.910Z,61.60
2018-03-25T22:08:05.801Z,61.50
2018-03-25T22:10:33.290Z,61.40
2018-03-25T22:13:00.763Z,61.30
2018-03-25T22:15:28.225Z,61.10
2018-03-25T22:17:56.994Z,61.20
2018-03-25T22:20:24.507Z,61.20
2018-03-25T22:22:51.957Z,61.10
2018-03-25T22:25:19.435Z,61.00
2018-03-25T22:27:47.013Z,60.80
2018-03-25T22:30:14.899Z,60.70
2018-03-25T22:32:42.364Z,60.70
2018-03-25T22:35:09.888Z,60.50
2018-03-25T22:37:37.374Z,60.30
2018-03-25T22:40:05.326Z,60.30
2018-03-25T22:42:32.774Z,60.20
2018-03-25T22:45:00.242Z,60.10
2018-03-25T22:47:27.794Z,60.10
2018-03-25T22:49:55.275Z,60.10
2018-03-25T22:52:22.730Z,60.30
2018-03-25T22:54:52.300Z,60.30
2018-03-25T22:57:19.767Z,60.50
2018-03-25T22:59:47.226Z,60.30
2018-03-25T23:02:14.697Z,60.40
2018-03-25T23:04:42.162Z,60.40
2018-03-25T23:07:09.666Z,60.40
2018-03-25T23:09:37.522Z,60.30
2018-03-25T23:12:04.999Z,60.30
2018-03-25T23:14:32.881Z,60.10
2018-03-25T23:17:00.735Z,60.20
2018-03-25T23:19:28.295Z,60.20
2018-03-25T23:21:55.763Z,60.20
2018-03-25T23:24:23.631Z,59.90
2018-03-25T23:26:51.172Z,59.90
2018-03-25T23:29:18.656Z,60.30
2018-03-25T23:31:46.225Z,60.00
2018-03-25T23:34:13.677Z,60.20
2018-03-25T23:36:41.335Z,59.70
2018-03-25T23:39:08.817Z,59.70
2018-03-25T23:41:36.279Z,59.90
2018-03-25T23:44:04.127Z,59.90
2018-03-25T23:46:31.606Z,59.80
2018-03-25T23:48:59.078Z,60.00
2018-03-25T23:51:26.954Z,60.30
2018-03-25T23:53:54.816Z,60.60
2018-03-25T23:56:22.688Z,61.10
2018-03-25T23:58:50.149Z,61.10
